sensor_id;sensor_type;location;lat;lon;timestamp;P1;durP1;ratioP1;P2;durP2;ratioP2
10063;SDS011;5071;52.360;13.134;2022-12-13T00:04:24;18.73;;;8.33;;
10063;SDS011;5071;52.360;13.134;2022-12-13T00:09:27;18.03;;;8.80;;
10063;SDS011;5071;52.360;13.134;2022-12-13T00:14:31;16.23;;;7.83;;
10063;SDS011;5071;52.360;13.134;2022-12-13T00:19:33;18.10;;;8.53;;
10063;SDS011;5071;52.360;13.134;2022-12-13T00:24:35;18.23;;;9.87;;
10063;SDS011;5071;52.360;13.134;2022-12-13T00:29:46;18.00;;;9.60;;
10063;SDS011;5071;52.360;13.134;2022-12-13T00:34:49;16.57;;;7.77;;
10063;SDS011;5071;52.360;13.134;2022-12-13T00:39:50;15.83;;;7.80;;
10063;SDS011;5071;52.360;13.134;2022-12-13T00:44:54;19.33;;;9.57;;
10063;SDS011;5071;52.360;13.134;2022-12-13T00:49:57;16.43;;;7.87;;
10063;SDS011;5071;52.360;13.134;2022-12-13T00:54:59;17.17;;;8.67;;
10063;SDS011;5071;52.360;13.134;2022-12-13T01:00:02;19.33;;;9.03;;
10063;SDS011;5071;52.360;13.134;2022-12-13T01:05:06;13.97;;;7.33;;
10063;SDS011;5071;52.360;13.134;2022-12-13T01:10:09;17.87;;;8.30;;
10063;SDS011;5071;52.360;13.134;2022-12-13T01:15:14;20.27;;;8.73;;
10063;SDS011;5071;52.360;13.134;2022-12-13T01:20:16;16.63;;;8.00;;
10063;SDS011;5071;52.360;13.134;2022-12-13T01:25:19;14.23;;;8.07;;
10063;SDS011;5071;52.360;13.134;2022-12-13T01:30:23;13.73;;;7.53;;
10063;SDS011;5071;52.360;13.134;2022-12-13T01:35:26;12.57;;;7.57;;
10063;SDS011;5071;52.360;13.134;2022-12-13T01:40:28;10.37;;;7.30;;
10063;SDS011;5071;52.360;13.134;2022-12-13T01:45:31;11.37;;;6.43;;
10063;SDS011;5071;52.360;13.134;2022-12-13T01:50:35;15.83;;;8.63;;
10063;SDS011;5071;52.360;13.134;2022-12-13T01:55:39;12.40;;;7.07;;
10063;SDS011;5071;52.360;13.134;2022-12-13T02:00:47;13.50;;;7.23;;
10063;SDS011;5071;52.360;13.134;2022-12-13T02:05:51;13.97;;;8.43;;
10063;SDS011;5071;52.360;13.134;2022-12-13T02:11:01;17.93;;;8.97;;
10063;SDS011;5071;52.360;13.134;2022-12-13T02:16:07;16.33;;;9.00;;
10063;SDS011;5071;52.360;13.134;2022-12-13T02:21:25;19.30;;;9.63;;
10063;SDS011;5071;52.360;13.134;2022-12-13T02:26:55;15.30;;;8.73;;
10063;SDS011;5071;52.360;13.134;2022-12-13T02:32:03;15.27;;;8.57;;
10063;SDS011;5071;52.360;13.134;2022-12-13T02:37:14;12.70;;;7.63;;
10063;SDS011;5071;52.360;13.134;2022-12-13T02:42:24;16.47;;;8.33;;
10063;SDS011;5071;52.360;13.134;2022-12-13T02:47:31;16.47;;;8.67;;
10063;SDS011;5071;52.360;13.134;2022-12-13T02:52:36;17.10;;;9.03;;
10063;SDS011;5071;52.360;13.134;2022-12-13T02:57:41;15.80;;;7.63;;
10063;SDS011;5071;52.360;13.134;2022-12-13T03:02:50;16.43;;;8.63;;
10063;SDS011;5071;52.360;13.134;2022-12-13T03:08:06;14.93;;;8.07;;
10063;SDS011;5071;52.360;13.134;2022-12-13T03:13:21;10.13;;;5.83;;
10063;SDS011;5071;52.360;13.134;2022-12-13T03:18:31;15.67;;;8.37;;
10063;SDS011;5071;52.360;13.134;2022-12-13T03:23:35;13.63;;;7.60;;
10063;SDS011;5071;52.360;13.134;2022-12-13T03:28:38;16.27;;;8.27;;
10063;SDS011;5071;52.360;13.134;2022-12-13T03:33:42;15.63;;;8.17;;
10063;SDS011;5071;52.360;13.134;2022-12-13T03:38:45;16.47;;;7.37;;
10063;SDS011;5071;52.360;13.134;2022-12-13T03:43:48;15.97;;;7.77;;
10063;SDS011;5071;52.360;13.134;2022-12-13T03:48:52;16.57;;;7.30;;
10063;SDS011;5071;52.360;13.134;2022-12-13T03:53:56;16.30;;;7.30;;
10063;SDS011;5071;52.360;13.134;2022-12-13T03:58:58;14.80;;;7.47;;
10063;SDS011;5071;52.360;13.134;2022-12-13T04:04:01;16.27;;;7.90;;
10063;SDS011;5071;52.360;13.134;2022-12-13T04:09:04;11.83;;;6.53;;
10063;SDS011;5071;52.360;13.134;2022-12-13T04:14:06;14.20;;;7.80;;
10063;SDS011;5071;52.360;13.134;2022-12-13T04:19:09;14.40;;;6.80;;
10063;SDS011;5071;52.360;13.134;2022-12-13T04:24:11;15.60;;;7.70;;
10063;SDS011;5071;52.360;13.134;2022-12-13T04:29:13;17.23;;;7.70;;
10063;SDS011;5071;52.360;13.134;2022-12-13T04:34:17;13.63;;;6.67;;
10063;SDS011;5071;52.360;13.134;2022-12-13T04:39:19;14.03;;;7.13;;
10063;SDS011;5071;52.360;13.134;2022-12-13T04:44:23;10.30;;;6.00;;
10063;SDS011;5071;52.360;13.134;2022-12-13T04:49:31;10.67;;;6.77;;
10063;SDS011;5071;52.360;13.134;2022-12-13T04:54:34;11.63;;;7.70;;
10063;SDS011;5071;52.360;13.134;2022-12-13T04:59:37;14.03;;;7.17;;
10063;SDS011;5071;52.360;13.134;2022-12-13T05:04:41;15.70;;;7.67;;
10063;SDS011;5071;52.360;13.134;2022-12-13T05:09:45;14.80;;;7.23;;
10063;SDS011;5071;52.360;13.134;2022-12-13T05:14:47;16.10;;;7.87;;
10063;SDS011;5071;52.360;13.134;2022-12-13T05:19:50;10.70;;;5.87;;
10063;SDS011;5071;52.360;13.134;2022-12-13T05:24:52;13.20;;;7.40;;
10063;SDS011;5071;52.360;13.134;2022-12-13T05:29:55;13.00;;;7.10;;
10063;SDS011;5071;52.360;13.134;2022-12-13T05:35:06;14.37;;;7.60;;
10063;SDS011;5071;52.360;13.134;2022-12-13T05:40:08;13.83;;;7.30;;
10063;SDS011;5071;52.360;13.134;2022-12-13T05:45:11;14.33;;;7.77;;
10063;SDS011;5071;52.360;13.134;2022-12-13T05:50:15;17.37;;;7.03;;
10063;SDS011;5071;52.360;13.134;2022-12-13T05:55:18;16.33;;;8.13;;
10063;SDS011;5071;52.360;13.134;2022-12-13T06:00:20;16.93;;;7.90;;
10063;SDS011;5071;52.360;13.134;2022-12-13T06:05:32;17.50;;;8.87;;
10063;SDS011;5071;52.360;13.134;2022-12-13T06:10:34;15.20;;;8.07;;
10063;SDS011;5071;52.360;13.134;2022-12-13T06:15:37;14.03;;;7.03;;
10063;SDS011;5071;52.360;13.134;2022-12-13T06:20:54;14.37;;;7.57;;
10063;SDS011;5071;52.360;13.134;2022-12-13T06:25:56;12.47;;;6.80;;
10063;SDS011;5071;52.360;13.134;2022-12-13T06:30:59;12.20;;;7.53;;
10063;SDS011;5071;52.360;13.134;2022-12-13T06:36:03;12.63;;;6.77;;
10063;SDS011;5071;52.360;13.134;2022-12-13T06:41:06;17.50;;;9.07;;
10063;SDS011;5071;52.360;13.134;2022-12-13T06:46:10;16.93;;;9.13;;
10063;SDS011;5071;52.360;13.134;2022-12-13T06:51:14;18.30;;;8.53;;
10063;SDS011;5071;52.360;13.134;2022-12-13T06:56:23;12.97;;;8.23;;
10063;SDS011;5071;52.360;13.134;2022-12-13T07:01:25;15.93;;;8.07;;
10063;SDS011;5071;52.360;13.134;2022-12-13T07:06:39;14.70;;;7.47;;
10063;SDS011;5071;52.360;13.134;2022-12-13T07:11:41;14.37;;;7.80;;
10063;SDS011;5071;52.360;13.134;2022-12-13T07:16:52;19.70;;;8.80;;
10063;SDS011;5071;52.360;13.134;2022-12-13T07:22:05;14.43;;;8.67;;
10063;SDS011;5071;52.360;13.134;2022-12-13T07:27:07;15.13;;;9.20;;
10063;SDS011;5071;52.360;13.134;2022-12-13T07:32:10;18.20;;;7.17;;
10063;SDS011;5071;52.360;13.134;2022-12-13T07:37:14;10.73;;;6.70;;
10063;SDS011;5071;52.360;13.134;2022-12-13T07:42:31;16.33;;;8.27;;
10063;SDS011;5071;52.360;13.134;2022-12-13T07:47:33;13.17;;;8.10;;
10063;SDS011;5071;52.360;13.134;2022-12-13T07:52:37;13.90;;;7.30;;
10063;SDS011;5071;52.360;13.134;2022-12-13T07:57:39;14.20;;;7.70;;
10063;SDS011;5071;52.360;13.134;2022-12-13T08:02:41;15.70;;;7.67;;
10063;SDS011;5071;52.360;13.134;2022-12-13T08:07:44;13.97;;;7.17;;
10063;SDS011;5071;52.360;13.134;2022-12-13T08:12:46;11.33;;;6.70;;
10063;SDS011;5071;52.360;13.134;2022-12-13T08:17:49;12.30;;;7.00;;
10063;SDS011;5071;52.360;13.134;2022-12-13T08:22:54;12.57;;;6.73;;
10063;SDS011;5071;52.360;13.134;2022-12-13T08:28:03;15.97;;;8.00;;
10063;SDS011;5071;52.360;13.134;2022-12-13T08:33:05;12.87;;;7.00;;
10063;SDS011;5071;52.360;13.134;2022-12-13T08:38:09;12.93;;;7.27;;
10063;SDS011;5071;52.360;13.134;2022-12-13T08:43:12;15.47;;;7.70;;
10063;SDS011;5071;52.360;13.134;2022-12-13T08:48:14;9.93;;;6.90;;
10063;SDS011;5071;52.360;13.134;2022-12-13T08:53:17;10.27;;;6.60;;
10063;SDS011;5071;52.360;13.134;2022-12-13T08:58:30;11.50;;;6.10;;
10063;SDS011;5071;52.360;13.134;2022-12-13T09:03:32;13.57;;;7.07;;
10063;SDS011;5071;52.360;13.134;2022-12-13T09:08:36;11.43;;;6.20;;
10063;SDS011;5071;52.360;13.134;2022-12-13T09:13:39;11.17;;;5.87;;
10063;SDS011;5071;52.360;13.134;2022-12-13T09:18:47;8.23;;;5.03;;
10063;SDS011;5071;52.360;13.134;2022-12-13T09:23:57;11.50;;;5.43;;
10063;SDS011;5071;52.360;13.134;2022-12-13T09:29:02;11.27;;;6.00;;
10063;SDS011;5071;52.360;13.134;2022-12-13T09:34:12;10.27;;;6.10;;
10063;SDS011;5071;52.360;13.134;2022-12-13T09:39:16;8.73;;;5.07;;
10063;SDS011;5071;52.360;13.134;2022-12-13T09:44:19;9.80;;;5.03;;
10063;SDS011;5071;52.360;13.134;2022-12-13T09:49:43;8.43;;;5.17;;
10063;SDS011;5071;52.360;13.134;2022-12-13T09:54:55;10.27;;;5.60;;
10063;SDS011;5071;52.360;13.134;2022-12-13T10:00:00;10.57;;;5.40;;
10063;SDS011;5071;52.360;13.134;2022-12-13T10:05:11;8.43;;;4.60;;
10063;SDS011;5071;52.360;13.134;2022-12-13T10:10:25;8.30;;;4.70;;
10063;SDS011;5071;52.360;13.134;2022-12-13T10:15:28;7.13;;;4.73;;
10063;SDS011;5071;52.360;13.134;2022-12-13T10:20:34;8.90;;;4.77;;
10063;SDS011;5071;52.360;13.134;2022-12-13T10:25:45;10.23;;;5.10;;
10063;SDS011;5071;52.360;13.134;2022-12-13T10:30:52;11.60;;;4.90;;
10063;SDS011;5071;52.360;13.134;2022-12-13T10:36:01;9.87;;;5.93;;
10063;SDS011;5071;52.360;13.134;2022-12-13T10:41:27;12.63;;;6.10;;
10063;SDS011;5071;52.360;13.134;2022-12-13T10:46:31;9.00;;;4.73;;
10063;SDS011;5071;52.360;13.134;2022-12-13T10:51:39;9.50;;;5.30;;
10063;SDS011;5071;52.360;13.134;2022-12-13T10:56:44;9.00;;;4.60;;
10063;SDS011;5071;52.360;13.134;2022-12-13T11:01:47;7.43;;;4.00;;
10063;SDS011;5071;52.360;13.134;2022-12-13T11:06:49;9.33;;;5.77;;
10063;SDS011;5071;52.360;13.134;2022-12-13T11:11:56;6.87;;;3.77;;
10063;SDS011;5071;52.360;13.134;2022-12-13T11:17:06;9.63;;;4.03;;
10063;SDS011;5071;52.360;13.134;2022-12-13T11:22:17;8.47;;;4.13;;
10063;SDS011;5071;52.360;13.134;2022-12-13T11:27:31;11.17;;;6.00;;
10063;SDS011;5071;52.360;13.134;2022-12-13T11:32:49;6.57;;;3.83;;
10063;SDS011;5071;52.360;13.134;2022-12-13T11:38:02;5.40;;;3.30;;
10063;SDS011;5071;52.360;13.134;2022-12-13T11:43:14;7.07;;;4.00;;
10063;SDS011;5071;52.360;13.134;2022-12-13T11:48:29;10.40;;;4.93;;
10063;SDS011;5071;52.360;13.134;2022-12-13T11:53:44;7.93;;;3.67;;
10063;SDS011;5071;52.360;13.134;2022-12-13T11:58:55;7.00;;;3.80;;
10063;SDS011;5071;52.360;13.134;2022-12-13T12:04:18;12.07;;;5.80;;
10063;SDS011;5071;52.360;13.134;2022-12-13T12:09:30;6.80;;;4.07;;
10063;SDS011;5071;52.360;13.134;2022-12-13T12:14:39;7.60;;;4.10;;
10063;SDS011;5071;52.360;13.134;2022-12-13T12:19:44;12.70;;;5.23;;
10063;SDS011;5071;52.360;13.134;2022-12-13T12:24:55;9.90;;;4.80;;
10063;SDS011;5071;52.360;13.134;2022-12-13T12:30:16;8.50;;;4.77;;
10063;SDS011;5071;52.360;13.134;2022-12-13T12:35:28;9.00;;;4.77;;
10063;SDS011;5071;52.360;13.134;2022-12-13T12:40:54;7.43;;;4.43;;
10063;SDS011;5071;52.360;13.134;2022-12-13T12:46:33;9.23;;;5.13;;
10063;SDS011;5071;52.360;13.134;2022-12-13T12:52:06;10.77;;;5.10;;
10063;SDS011;5071;52.360;13.134;2022-12-13T12:57:17;7.63;;;5.30;;
10063;SDS011;5071;52.360;13.134;2022-12-13T13:02:27;8.90;;;5.40;;
10063;SDS011;5071;52.360;13.134;2022-12-13T13:07:37;8.87;;;4.70;;
10063;SDS011;5071;52.360;13.134;2022-12-13T13:12:52;11.33;;;5.43;;
10063;SDS011;5071;52.360;13.134;2022-12-13T13:23:56;10.20;;;5.13;;
10063;SDS011;5071;52.360;13.134;2022-12-13T13:34:40;11.73;;;5.60;;
10063;SDS011;5071;52.360;13.134;2022-12-13T13:39:56;12.50;;;5.30;;
10063;SDS011;5071;52.360;13.134;2022-12-13T13:50:33;11.53;;;4.90;;
10063;SDS011;5071;52.360;13.134;2022-12-13T13:55:54;9.43;;;5.17;;
10063;SDS011;5071;52.360;13.134;2022-12-13T14:01:29;9.93;;;5.77;;
10063;SDS011;5071;52.360;13.134;2022-12-13T14:06:58;9.63;;;5.47;;
10063;SDS011;5071;52.360;13.134;2022-12-13T14:12:43;10.67;;;5.23;;
10063;SDS011;5071;52.360;13.134;2022-12-13T14:24:01;8.80;;;5.17;;
10063;SDS011;5071;52.360;13.134;2022-12-13T14:29:13;5.93;;;4.00;;
10063;SDS011;5071;52.360;13.134;2022-12-13T14:34:18;8.30;;;4.30;;
10063;SDS011;5071;52.360;13.134;2022-12-13T14:39:24;7.57;;;4.27;;
10063;SDS011;5071;52.360;13.134;2022-12-13T14:44:27;8.10;;;4.47;;
10063;SDS011;5071;52.360;13.134;2022-12-13T14:49:31;8.90;;;4.77;;
10063;SDS011;5071;52.360;13.134;2022-12-13T14:54:39;9.87;;;5.17;;
10063;SDS011;5071;52.360;13.134;2022-12-13T14:59:46;7.97;;;4.60;;
10063;SDS011;5071;52.360;13.134;2022-12-13T15:04:51;10.93;;;5.13;;
10063;SDS011;5071;52.360;13.134;2022-12-13T15:09:56;9.37;;;4.83;;
10063;SDS011;5071;52.360;13.134;2022-12-13T15:15:02;12.53;;;4.93;;
10063;SDS011;5071;52.360;13.134;2022-12-13T15:20:19;11.97;;;5.47;;
10063;SDS011;5071;52.360;13.134;2022-12-13T15:25:25;14.53;;;5.43;;
10063;SDS011;5071;52.360;13.134;2022-12-13T15:30:28;11.97;;;5.83;;
10063;SDS011;5071;52.360;13.134;2022-12-13T15:35:34;8.67;;;5.20;;
10063;SDS011;5071;52.360;13.134;2022-12-13T15:40:38;10.47;;;5.00;;
10063;SDS011;5071;52.360;13.134;2022-12-13T15:45:44;7.07;;;4.13;;
10063;SDS011;5071;52.360;13.134;2022-12-13T15:50:48;10.40;;;5.00;;
10063;SDS011;5071;52.360;13.134;2022-12-13T15:55:52;10.80;;;5.27;;
10063;SDS011;5071;52.360;13.134;2022-12-13T16:00:54;12.10;;;6.10;;
10063;SDS011;5071;52.360;13.134;2022-12-13T16:05:56;10.70;;;5.07;;
10063;SDS011;5071;52.360;13.134;2022-12-13T16:11:00;8.80;;;5.00;;
10063;SDS011;5071;52.360;13.134;2022-12-13T16:21:28;10.93;;;6.43;;
10063;SDS011;5071;52.360;13.134;2022-12-13T16:26:32;11.57;;;5.97;;
10063;SDS011;5071;52.360;13.134;2022-12-13T16:31:35;9.63;;;5.10;;
10063;SDS011;5071;52.360;13.134;2022-12-13T16:36:37;13.70;;;6.10;;
10063;SDS011;5071;52.360;13.134;2022-12-13T16:41:42;13.13;;;6.47;;
10063;SDS011;5071;52.360;13.134;2022-12-13T16:46:47;10.77;;;5.87;;
10063;SDS011;5071;52.360;13.134;2022-12-13T16:52:09;12.80;;;6.87;;
10063;SDS011;5071;52.360;13.134;2022-12-13T16:57:13;15.90;;;7.90;;
10063;SDS011;5071;52.360;13.134;2022-12-13T17:02:15;12.13;;;7.40;;
10063;SDS011;5071;52.360;13.134;2022-12-13T17:07:18;15.03;;;7.43;;
10063;SDS011;5071;52.360;13.134;2022-12-13T17:12:21;10.13;;;6.03;;
10063;SDS011;5071;52.360;13.134;2022-12-13T17:17:24;14.03;;;7.97;;
10063;SDS011;5071;52.360;13.134;2022-12-13T17:22:27;14.60;;;7.13;;
10063;SDS011;5071;52.360;13.134;2022-12-13T17:27:30;16.23;;;7.43;;
10063;SDS011;5071;52.360;13.134;2022-12-13T17:32:32;13.73;;;7.10;;
10063;SDS011;5071;52.360;13.134;2022-12-13T17:37:34;14.67;;;7.13;;
10063;SDS011;5071;52.360;13.134;2022-12-13T17:42:37;12.33;;;6.30;;
10063;SDS011;5071;52.360;13.134;2022-12-13T17:47:39;12.30;;;6.77;;
10063;SDS011;5071;52.360;13.134;2022-12-13T17:52:41;16.20;;;8.23;;
10063;SDS011;5071;52.360;13.134;2022-12-13T17:57:44;17.90;;;8.63;;
10063;SDS011;5071;52.360;13.134;2022-12-13T18:02:46;15.47;;;8.23;;
10063;SDS011;5071;52.360;13.134;2022-12-13T18:07:56;14.33;;;7.57;;
10063;SDS011;5071;52.360;13.134;2022-12-13T18:12:59;18.97;;;9.27;;
10063;SDS011;5071;52.360;13.134;2022-12-13T18:18:01;18.10;;;8.10;;
10063;SDS011;5071;52.360;13.134;2022-12-13T18:23:12;15.93;;;7.40;;
10063;SDS011;5071;52.360;13.134;2022-12-13T18:28:16;18.17;;;7.67;;
10063;SDS011;5071;52.360;13.134;2022-12-13T18:33:18;24.30;;;10.07;;
10063;SDS011;5071;52.360;13.134;2022-12-13T18:38:21;25.03;;;12.17;;
10063;SDS011;5071;52.360;13.134;2022-12-13T18:43:25;36.27;;;12.37;;
10063;SDS011;5071;52.360;13.134;2022-12-13T18:48:27;34.83;;;15.17;;
10063;SDS011;5071;52.360;13.134;2022-12-13T18:53:30;34.67;;;14.80;;
10063;SDS011;5071;52.360;13.134;2022-12-13T18:58:34;37.23;;;15.90;;
10063;SDS011;5071;52.360;13.134;2022-12-13T19:03:36;35.63;;;14.97;;
10063;SDS011;5071;52.360;13.134;2022-12-13T19:08:39;31.30;;;13.83;;
10063;SDS011;5071;52.360;13.134;2022-12-13T19:13:42;32.67;;;13.97;;
10063;SDS011;5071;52.360;13.134;2022-12-13T19:18:45;33.50;;;13.83;;
10063;SDS011;5071;52.360;13.134;2022-12-13T19:23:49;38.47;;;14.80;;
10063;SDS011;5071;52.360;13.134;2022-12-13T19:29:00;34.57;;;15.53;;
10063;SDS011;5071;52.360;13.134;2022-12-13T19:34:02;32.60;;;16.63;;
10063;SDS011;5071;52.360;13.134;2022-12-13T19:39:04;26.90;;;12.50;;
10063;SDS011;5071;52.360;13.134;2022-12-13T19:44:08;23.27;;;11.80;;
10063;SDS011;5071;52.360;13.134;2022-12-13T19:49:12;27.20;;;11.93;;
10063;SDS011;5071;52.360;13.134;2022-12-13T19:54:14;19.53;;;10.90;;
10063;SDS011;5071;52.360;13.134;2022-12-13T19:59:18;15.40;;;9.17;;
10063;SDS011;5071;52.360;13.134;2022-12-13T20:04:20;22.37;;;10.57;;
10063;SDS011;5071;52.360;13.134;2022-12-13T20:09:24;23.97;;;12.50;;
10063;SDS011;5071;52.360;13.134;2022-12-13T20:14:27;15.47;;;9.50;;
10063;SDS011;5071;52.360;13.134;2022-12-13T20:19:30;22.53;;;10.10;;
10063;SDS011;5071;52.360;13.134;2022-12-13T20:24:33;17.33;;;9.20;;
10063;SDS011;5071;52.360;13.134;2022-12-13T20:29:36;23.27;;;10.77;;
10063;SDS011;5071;52.360;13.134;2022-12-13T20:34:39;17.90;;;9.10;;
10063;SDS011;5071;52.360;13.134;2022-12-13T20:39:41;18.67;;;8.83;;
10063;SDS011;5071;52.360;13.134;2022-12-13T20:44:45;20.20;;;9.60;;
10063;SDS011;5071;52.360;13.134;2022-12-13T20:49:46;16.90;;;9.20;;
10063;SDS011;5071;52.360;13.134;2022-12-13T20:54:49;14.90;;;7.07;;
10063;SDS011;5071;52.360;13.134;2022-12-13T20:59:53;16.40;;;7.17;;
10063;SDS011;5071;52.360;13.134;2022-12-13T21:04:55;21.33;;;8.97;;
10063;SDS011;5071;52.360;13.134;2022-12-13T21:09:59;14.20;;;6.47;;
10063;SDS011;5071;52.360;13.134;2022-12-13T21:15:06;15.53;;;9.07;;
10063;SDS011;5071;52.360;13.134;2022-12-13T21:20:08;16.87;;;8.00;;
10063;SDS011;5071;52.360;13.134;2022-12-13T21:25:11;15.63;;;7.27;;
10063;SDS011;5071;52.360;13.134;2022-12-13T21:30:14;16.03;;;7.57;;
10063;SDS011;5071;52.360;13.134;2022-12-13T21:35:16;16.90;;;8.00;;
10063;SDS011;5071;52.360;13.134;2022-12-13T21:40:18;16.47;;;8.07;;
10063;SDS011;5071;52.360;13.134;2022-12-13T21:45:21;12.07;;;6.50;;
10063;SDS011;5071;52.360;13.134;2022-12-13T21:50:24;15.10;;;7.57;;
10063;SDS011;5071;52.360;13.134;2022-12-13T21:55:25;14.30;;;7.27;;
10063;SDS011;5071;52.360;13.134;2022-12-13T22:00:41;12.77;;;6.97;;
10063;SDS011;5071;52.360;13.134;2022-12-13T22:05:43;11.50;;;6.03;;
10063;SDS011;5071;52.360;13.134;2022-12-13T22:10:45;17.40;;;7.03;;
10063;SDS011;5071;52.360;13.134;2022-12-13T22:15:48;14.77;;;7.03;;
10063;SDS011;5071;52.360;13.134;2022-12-13T22:20:54;19.30;;;5.77;;
10063;SDS011;5071;52.360;13.134;2022-12-13T22:25:56;14.50;;;6.67;;
10063;SDS011;5071;52.360;13.134;2022-12-13T22:31:00;12.33;;;6.07;;
10063;SDS011;5071;52.360;13.134;2022-12-13T22:36:03;7.97;;;5.43;;
10063;SDS011;5071;52.360;13.134;2022-12-13T22:41:05;11.40;;;6.60;;
10063;SDS011;5071;52.360;13.134;2022-12-13T22:46:09;9.73;;;4.87;;
10063;SDS011;5071;52.360;13.134;2022-12-13T22:51:14;11.87;;;5.90;;
10063;SDS011;5071;52.360;13.134;2022-12-13T22:56:18;9.87;;;5.93;;
10063;SDS011;5071;52.360;13.134;2022-12-13T23:01:24;11.47;;;5.33;;
10063;SDS011;5071;52.360;13.134;2022-12-13T23:06:31;13.57;;;5.67;;
10063;SDS011;5071;52.360;13.134;2022-12-13T23:11:34;13.03;;;6.33;;
10063;SDS011;5071;52.360;13.134;2022-12-13T23:16:38;16.50;;;8.10;;
10063;SDS011;5071;52.360;13.134;2022-12-13T23:21:41;12.47;;;5.33;;
10063;SDS011;5071;52.360;13.134;2022-12-13T23:26:49;14.83;;;6.63;;
10063;SDS011;5071;52.360;13.134;2022-12-13T23:31:52;14.87;;;6.20;;
10063;SDS011;5071;52.360;13.134;2022-12-13T23:36:54;12.50;;;6.03;;
10063;SDS011;5071;52.360;13.134;2022-12-13T23:41:56;11.43;;;6.57;;
10063;SDS011;5071;52.360;13.134;2022-12-13T23:47:00;8.67;;;4.77;;
10063;SDS011;5071;52.360;13.134;2022-12-13T23:52:02;16.50;;;5.70;;
10063;SDS011;5071;52.360;13.134;2022-12-13T23:57:04;8.77;;;4.77;;
